Terminal Aerodrome Forecast
Issued by NWS Nashville, TN

Home | Current Version | Previous Version | Text Only | Print | Product List | Glossary On
Versions: 1 2 3 4 5 6 7 8 9 10 11 12 13 14 15 16 17 18 19 20 21 22 23 24 25 26
000
FTUS44 KOHX 261100
TAFBNA
TAF
KBNA 261138Z 2612/2712 32006KT P6SM BKN006 OVC011
      TEMPO 2612/2614 4SM BR
     FM261700 34007KT P6SM OVC015
     FM262100 35007KT P6SM OVC035
     FM270200 35006KT P6SM SCT150=

USA.gov is the U.S. government's official web portal to all federal, state and local government web resources and services.